sensor_id;sensor_type;location;lat;lon;timestamp;temperature;humidity
18408;DHT22;9330;52.210;21.174;2023-09-07T00:01:29;13.80;99.90
18408;DHT22;9330;52.210;21.174;2023-09-07T00:03:56;13.80;99.90
18408;DHT22;9330;52.210;21.174;2023-09-07T00:06:23;13.80;99.90
18408;DHT22;9330;52.210;21.174;2023-09-07T00:08:50;13.80;99.90
18408;DHT22;9330;52.210;21.174;2023-09-07T00:11:17;13.80;99.90
18408;DHT22;9330;52.210;21.174;2023-09-07T00:13:44;13.80;99.90
18408;DHT22;9330;52.210;21.174;2023-09-07T00:16:12;13.80;99.90
18408;DHT22;9330;52.210;21.174;2023-09-07T00:18:39;13.80;99.90
18408;DHT22;9330;52.210;21.174;2023-09-07T00:21:05;13.80;99.90
18408;DHT22;9330;52.210;21.174;2023-09-07T00:23:32;13.70;99.90
18408;DHT22;9330;52.210;21.174;2023-09-07T00:25:59;13.80;99.90
18408;DHT22;9330;52.210;21.174;2023-09-07T00:28:26;13.70;99.90
18408;DHT22;9330;52.210;21.174;2023-09-07T00:30:52;13.70;99.90
18408;DHT22;9330;52.210;21.174;2023-09-07T00:33:20;13.70;99.90
18408;DHT22;9330;52.210;21.174;2023-09-07T00:35:47;13.70;99.90
18408;DHT22;9330;52.210;21.174;2023-09-07T00:38:14;13.70;99.90
18408;DHT22;9330;52.210;21.174;2023-09-07T00:40:42;13.60;99.90
18408;DHT22;9330;52.210;21.174;2023-09-07T00:43:10;13.60;99.90
18408;DHT22;9330;52.210;21.174;2023-09-07T00:45:37;13.60;99.90
18408;DHT22;9330;52.210;21.174;2023-09-07T00:48:05;13.50;99.90
18408;DHT22;9330;52.210;21.174;2023-09-07T00:50:33;13.50;99.90
18408;DHT22;9330;52.210;21.174;2023-09-07T00:53:00;13.50;99.90
18408;DHT22;9330;52.210;21.174;2023-09-07T00:55:28;13.50;99.90
18408;DHT22;9330;52.210;21.174;2023-09-07T00:57:58;13.50;99.90
18408;DHT22;9330;52.210;21.174;2023-09-07T01:00:25;13.50;99.90
18408;DHT22;9330;52.210;21.174;2023-09-07T01:02:51;13.40;99.90
18408;DHT22;9330;52.210;21.174;2023-09-07T01:05:19;13.40;99.90
18408;DHT22;9330;52.210;21.174;2023-09-07T01:07:56;13.40;99.90
18408;DHT22;9330;52.210;21.174;2023-09-07T01:10:24;13.40;99.90
18408;DHT22;9330;52.210;21.174;2023-09-07T01:12:51;13.30;99.90
18408;DHT22;9330;52.210;21.174;2023-09-07T01:15:17;13.30;99.90
18408;DHT22;9330;52.210;21.174;2023-09-07T01:17:44;13.30;99.90
18408;DHT22;9330;52.210;21.174;2023-09-07T01:20:13;13.30;99.90
18408;DHT22;9330;52.210;21.174;2023-09-07T01:22:43;13.30;99.90
18408;DHT22;9330;52.210;21.174;2023-09-07T01:25:10;13.20;99.90
18408;DHT22;9330;52.210;21.174;2023-09-07T01:27:37;13.20;99.90
18408;DHT22;9330;52.210;21.174;2023-09-07T01:30:06;13.20;99.90
18408;DHT22;9330;52.210;21.174;2023-09-07T01:32:33;13.20;99.90
18408;DHT22;9330;52.210;21.174;2023-09-07T01:35:01;13.20;99.90
18408;DHT22;9330;52.210;21.174;2023-09-07T01:37:30;13.20;99.90
18408;DHT22;9330;52.210;21.174;2023-09-07T01:39:58;13.10;99.90
18408;DHT22;9330;52.210;21.174;2023-09-07T01:42:26;13.10;99.90
18408;DHT22;9330;52.210;21.174;2023-09-07T01:44:53;13.10;99.90
18408;DHT22;9330;52.210;21.174;2023-09-07T01:47:19;13.10;99.90
18408;DHT22;9330;52.210;21.174;2023-09-07T01:49:46;13.00;99.90
18408;DHT22;9330;52.210;21.174;2023-09-07T01:52:13;13.00;99.90
18408;DHT22;9330;52.210;21.174;2023-09-07T01:54:40;13.00;99.90
18408;DHT22;9330;52.210;21.174;2023-09-07T01:57:08;12.90;99.90
18408;DHT22;9330;52.210;21.174;2023-09-07T01:59:35;13.00;99.90
18408;DHT22;9330;52.210;21.174;2023-09-07T02:02:01;12.90;99.90
18408;DHT22;9330;52.210;21.174;2023-09-07T02:04:28;13.00;99.90
18408;DHT22;9330;52.210;21.174;2023-09-07T02:06:55;12.90;99.90
18408;DHT22;9330;52.210;21.174;2023-09-07T02:09:22;12.90;99.90
18408;DHT22;9330;52.210;21.174;2023-09-07T02:11:49;12.90;99.90
18408;DHT22;9330;52.210;21.174;2023-09-07T02:14:17;12.90;99.90
18408;DHT22;9330;52.210;21.174;2023-09-07T02:16:43;12.80;99.90
18408;DHT22;9330;52.210;21.174;2023-09-07T02:19:10;12.80;99.90
18408;DHT22;9330;52.210;21.174;2023-09-07T02:21:37;12.80;99.90
18408;DHT22;9330;52.210;21.174;2023-09-07T02:24:04;12.80;99.90
18408;DHT22;9330;52.210;21.174;2023-09-07T02:26:31;12.70;99.90
18408;DHT22;9330;52.210;21.174;2023-09-07T02:28:58;12.70;99.90
18408;DHT22;9330;52.210;21.174;2023-09-07T02:31:26;12.80;99.90
18408;DHT22;9330;52.210;21.174;2023-09-07T02:33:53;12.70;99.90
18408;DHT22;9330;52.210;21.174;2023-09-07T02:36:20;12.70;99.90
18408;DHT22;9330;52.210;21.174;2023-09-07T02:38:46;12.70;99.90
18408;DHT22;9330;52.210;21.174;2023-09-07T02:41:13;12.70;99.90
18408;DHT22;9330;52.210;21.174;2023-09-07T02:43:40;12.60;99.90
18408;DHT22;9330;52.210;21.174;2023-09-07T02:46:07;12.60;99.90
18408;DHT22;9330;52.210;21.174;2023-09-07T02:48:35;12.60;99.90
18408;DHT22;9330;52.210;21.174;2023-09-07T02:51:01;12.60;99.90
18408;DHT22;9330;52.210;21.174;2023-09-07T02:53:28;12.60;99.90
18408;DHT22;9330;52.210;21.174;2023-09-07T02:55:55;12.60;99.90
18408;DHT22;9330;52.210;21.174;2023-09-07T02:58:23;12.50;99.90
18408;DHT22;9330;52.210;21.174;2023-09-07T03:00:50;12.50;99.90
18408;DHT22;9330;52.210;21.174;2023-09-07T03:03:17;12.50;99.90
18408;DHT22;9330;52.210;21.174;2023-09-07T03:05:45;12.50;99.90
18408;DHT22;9330;52.210;21.174;2023-09-07T03:08:12;12.50;99.90
18408;DHT22;9330;52.210;21.174;2023-09-07T03:10:39;12.50;99.90
18408;DHT22;9330;52.210;21.174;2023-09-07T03:13:06;12.50;99.90
18408;DHT22;9330;52.210;21.174;2023-09-07T03:15:33;12.40;99.90
18408;DHT22;9330;52.210;21.174;2023-09-07T03:18:00;12.40;99.90
18408;DHT22;9330;52.210;21.174;2023-09-07T03:20:27;12.40;99.90
18408;DHT22;9330;52.210;21.174;2023-09-07T03:22:55;12.40;99.90
18408;DHT22;9330;52.210;21.174;2023-09-07T03:25:23;12.40;99.90
18408;DHT22;9330;52.210;21.174;2023-09-07T03:27:50;12.40;99.90
18408;DHT22;9330;52.210;21.174;2023-09-07T03:30:17;12.40;99.90
18408;DHT22;9330;52.210;21.174;2023-09-07T03:32:44;12.40;99.90
18408;DHT22;9330;52.210;21.174;2023-09-07T03:35:11;12.30;99.90
18408;DHT22;9330;52.210;21.174;2023-09-07T03:37:38;12.30;99.90
18408;DHT22;9330;52.210;21.174;2023-09-07T03:40:08;12.30;99.90
18408;DHT22;9330;52.210;21.174;2023-09-07T03:42:35;12.30;99.90
18408;DHT22;9330;52.210;21.174;2023-09-07T03:45:03;12.30;99.90
18408;DHT22;9330;52.210;21.174;2023-09-07T03:47:30;12.30;99.90
18408;DHT22;9330;52.210;21.174;2023-09-07T03:49:57;12.30;99.90
18408;DHT22;9330;52.210;21.174;2023-09-07T03:52:24;12.20;99.90
18408;DHT22;9330;52.210;21.174;2023-09-07T03:54:53;12.20;99.90
18408;DHT22;9330;52.210;21.174;2023-09-07T03:57:22;12.20;99.90
18408;DHT22;9330;52.210;21.174;2023-09-07T03:59:49;12.20;99.90
18408;DHT22;9330;52.210;21.174;2023-09-07T04:02:16;12.20;99.90
18408;DHT22;9330;52.210;21.174;2023-09-07T04:04:43;12.20;99.90
18408;DHT22;9330;52.210;21.174;2023-09-07T04:07:10;12.20;99.90
18408;DHT22;9330;52.210;21.174;2023-09-07T04:09:37;12.20;99.90
18408;DHT22;9330;52.210;21.174;2023-09-07T04:12:04;12.20;99.90
18408;DHT22;9330;52.210;21.174;2023-09-07T04:14:33;12.20;99.90
18408;DHT22;9330;52.210;21.174;2023-09-07T04:17:00;12.10;99.90
18408;DHT22;9330;52.210;21.174;2023-09-07T04:19:27;12.20;99.90
18408;DHT22;9330;52.210;21.174;2023-09-07T04:21:54;12.20;99.90
18408;DHT22;9330;52.210;21.174;2023-09-07T04:24:21;12.20;99.90
18408;DHT22;9330;52.210;21.174;2023-09-07T04:26:48;12.10;99.90
18408;DHT22;9330;52.210;21.174;2023-09-07T04:29:15;12.20;99.90
18408;DHT22;9330;52.210;21.174;2023-09-07T04:31:43;12.10;99.90
18408;DHT22;9330;52.210;21.174;2023-09-07T04:34:10;12.10;99.90
18408;DHT22;9330;52.210;21.174;2023-09-07T04:36:37;12.20;99.90
18408;DHT22;9330;52.210;21.174;2023-09-07T04:39:04;12.20;99.90
18408;DHT22;9330;52.210;21.174;2023-09-07T04:41:30;12.20;99.90
18408;DHT22;9330;52.210;21.174;2023-09-07T04:43:58;12.30;99.90
18408;DHT22;9330;52.210;21.174;2023-09-07T04:46:25;12.30;99.90
18408;DHT22;9330;52.210;21.174;2023-09-07T04:48:53;12.30;99.90
18408;DHT22;9330;52.210;21.174;2023-09-07T04:51:19;12.30;99.90
18408;DHT22;9330;52.210;21.174;2023-09-07T04:53:47;12.30;99.90
18408;DHT22;9330;52.210;21.174;2023-09-07T04:56:14;12.30;99.90
18408;DHT22;9330;52.210;21.174;2023-09-07T04:58:42;12.40;99.90
18408;DHT22;9330;52.210;21.174;2023-09-07T05:01:11;12.40;99.90
18408;DHT22;9330;52.210;21.174;2023-09-07T05:03:38;12.40;99.90
18408;DHT22;9330;52.210;21.174;2023-09-07T05:06:07;12.50;99.90
18408;DHT22;9330;52.210;21.174;2023-09-07T05:08:34;12.50;99.90
18408;DHT22;9330;52.210;21.174;2023-09-07T05:11:02;12.50;99.90
18408;DHT22;9330;52.210;21.174;2023-09-07T05:13:29;12.60;99.90
18408;DHT22;9330;52.210;21.174;2023-09-07T05:15:57;12.70;99.90
18408;DHT22;9330;52.210;21.174;2023-09-07T05:18:24;12.70;99.90
18408;DHT22;9330;52.210;21.174;2023-09-07T05:20:51;12.70;99.90
18408;DHT22;9330;52.210;21.174;2023-09-07T05:23:19;12.80;99.90
18408;DHT22;9330;52.210;21.174;2023-09-07T05:25:47;12.90;99.90
18408;DHT22;9330;52.210;21.174;2023-09-07T05:28:15;13.00;99.90
18408;DHT22;9330;52.210;21.174;2023-09-07T05:30:42;13.00;99.90
18408;DHT22;9330;52.210;21.174;2023-09-07T05:33:09;13.20;99.90
18408;DHT22;9330;52.210;21.174;2023-09-07T05:35:36;13.30;99.90
18408;DHT22;9330;52.210;21.174;2023-09-07T05:38:03;13.50;99.90
18408;DHT22;9330;52.210;21.174;2023-09-07T05:40:35;13.60;99.90
18408;DHT22;9330;52.210;21.174;2023-09-07T05:43:03;13.80;99.90
18408;DHT22;9330;52.210;21.174;2023-09-07T05:45:30;13.90;99.90
18408;DHT22;9330;52.210;21.174;2023-09-07T05:47:57;14.10;99.90
18408;DHT22;9330;52.210;21.174;2023-09-07T05:50:24;14.20;99.90
18408;DHT22;9330;52.210;21.174;2023-09-07T05:52:50;14.40;99.90
18408;DHT22;9330;52.210;21.174;2023-09-07T05:55:17;14.60;99.90
18408;DHT22;9330;52.210;21.174;2023-09-07T05:57:46;14.70;99.90
18408;DHT22;9330;52.210;21.174;2023-09-07T06:00:13;14.90;99.90
18408;DHT22;9330;52.210;21.174;2023-09-07T06:02:41;15.20;99.90
18408;DHT22;9330;52.210;21.174;2023-09-07T06:05:08;15.40;99.90
18408;DHT22;9330;52.210;21.174;2023-09-07T06:07:35;15.60;99.90
18408;DHT22;9330;52.210;21.174;2023-09-07T06:10:02;15.90;99.90
18408;DHT22;9330;52.210;21.174;2023-09-07T06:12:31;16.30;99.90
18408;DHT22;9330;52.210;21.174;2023-09-07T06:14:59;16.40;99.90
18408;DHT22;9330;52.210;21.174;2023-09-07T06:17:26;16.70;99.90
18408;DHT22;9330;52.210;21.174;2023-09-07T06:19:53;17.00;99.90
18408;DHT22;9330;52.210;21.174;2023-09-07T06:22:20;17.30;99.90
18408;DHT22;9330;52.210;21.174;2023-09-07T06:24:46;17.40;99.90
18408;DHT22;9330;52.210;21.174;2023-09-07T06:27:13;17.60;99.90
18408;DHT22;9330;52.210;21.174;2023-09-07T06:29:40;17.80;99.90
18408;DHT22;9330;52.210;21.174;2023-09-07T06:32:08;17.90;99.90
18408;DHT22;9330;52.210;21.174;2023-09-07T06:34:35;17.80;99.90
18408;DHT22;9330;52.210;21.174;2023-09-07T06:37:02;18.20;99.90
18408;DHT22;9330;52.210;21.174;2023-09-07T06:39:29;18.40;99.90
18408;DHT22;9330;52.210;21.174;2023-09-07T06:41:56;18.60;99.90
18408;DHT22;9330;52.210;21.174;2023-09-07T06:44:22;18.50;99.90
18408;DHT22;9330;52.210;21.174;2023-09-07T06:46:49;18.50;99.90
18408;DHT22;9330;52.210;21.174;2023-09-07T06:49:17;18.60;99.90
18408;DHT22;9330;52.210;21.174;2023-09-07T06:51:44;19.10;99.90
18408;DHT22;9330;52.210;21.174;2023-09-07T06:54:12;19.80;99.90
18408;DHT22;9330;52.210;21.174;2023-09-07T06:56:39;20.10;99.90
18408;DHT22;9330;52.210;21.174;2023-09-07T06:59:06;20.40;99.90
18408;DHT22;9330;52.210;21.174;2023-09-07T07:01:33;20.30;99.90
18408;DHT22;9330;52.210;21.174;2023-09-07T07:04:01;20.20;99.90
18408;DHT22;9330;52.210;21.174;2023-09-07T07:06:29;20.20;99.90
18408;DHT22;9330;52.210;21.174;2023-09-07T07:08:55;20.40;99.90
18408;DHT22;9330;52.210;21.174;2023-09-07T07:11:22;20.70;99.90
18408;DHT22;9330;52.210;21.174;2023-09-07T07:13:49;20.80;99.90
18408;DHT22;9330;52.210;21.174;2023-09-07T07:16:17;21.00;99.90
18408;DHT22;9330;52.210;21.174;2023-09-07T07:18:43;21.30;99.90
18408;DHT22;9330;52.210;21.174;2023-09-07T07:21:10;21.30;99.90
18408;DHT22;9330;52.210;21.174;2023-09-07T07:23:38;21.30;99.90
18408;DHT22;9330;52.210;21.174;2023-09-07T07:26:05;21.70;99.90
18408;DHT22;9330;52.210;21.174;2023-09-07T07:28:34;21.90;99.90
18408;DHT22;9330;52.210;21.174;2023-09-07T07:31:07;22.10;99.90
18408;DHT22;9330;52.210;21.174;2023-09-07T07:33:34;22.30;99.90
18408;DHT22;9330;52.210;21.174;2023-09-07T07:36:03;22.60;99.90
18408;DHT22;9330;52.210;21.174;2023-09-07T07:38:29;22.50;99.90
18408;DHT22;9330;52.210;21.174;2023-09-07T07:40:58;22.50;99.90
18408;DHT22;9330;52.210;21.174;2023-09-07T07:43:26;22.60;99.90
18408;DHT22;9330;52.210;21.174;2023-09-07T07:45:54;22.60;99.90
18408;DHT22;9330;52.210;21.174;2023-09-07T07:48:21;22.70;99.90
18408;DHT22;9330;52.210;21.174;2023-09-07T07:50:48;22.80;99.90
18408;DHT22;9330;52.210;21.174;2023-09-07T07:53:15;22.90;99.90
18408;DHT22;9330;52.210;21.174;2023-09-07T07:55:42;22.90;99.90
18408;DHT22;9330;52.210;21.174;2023-09-07T07:58:09;22.80;99.90
18408;DHT22;9330;52.210;21.174;2023-09-07T08:00:36;22.70;99.90
18408;DHT22;9330;52.210;21.174;2023-09-07T08:03:04;22.70;99.90
18408;DHT22;9330;52.210;21.174;2023-09-07T08:05:33;22.80;99.90
18408;DHT22;9330;52.210;21.174;2023-09-07T08:08:00;22.90;99.90
18408;DHT22;9330;52.210;21.174;2023-09-07T08:10:27;23.20;99.90
18408;DHT22;9330;52.210;21.174;2023-09-07T08:12:54;23.20;99.90
18408;DHT22;9330;52.210;21.174;2023-09-07T08:15:23;23.20;99.90
18408;DHT22;9330;52.210;21.174;2023-09-07T08:17:50;23.40;99.90
18408;DHT22;9330;52.210;21.174;2023-09-07T08:20:17;23.40;99.90
18408;DHT22;9330;52.210;21.174;2023-09-07T08:22:44;23.60;99.90
18408;DHT22;9330;52.210;21.174;2023-09-07T08:25:11;23.80;99.90
18408;DHT22;9330;52.210;21.174;2023-09-07T08:27:39;23.70;99.90
18408;DHT22;9330;52.210;21.174;2023-09-07T08:30:11;23.70;99.90
18408;DHT22;9330;52.210;21.174;2023-09-07T08:32:39;23.80;99.90
18408;DHT22;9330;52.210;21.174;2023-09-07T08:35:08;23.90;99.90
18408;DHT22;9330;52.210;21.174;2023-09-07T08:37:34;24.10;99.90
18408;DHT22;9330;52.210;21.174;2023-09-07T08:40:01;24.10;99.90
18408;DHT22;9330;52.210;21.174;2023-09-07T08:42:33;24.10;99.90
18408;DHT22;9330;52.210;21.174;2023-09-07T08:45:03;24.10;99.90
18408;DHT22;9330;52.210;21.174;2023-09-07T08:47:33;24.20;99.90
18408;DHT22;9330;52.210;21.174;2023-09-07T08:50:02;24.30;99.90
18408;DHT22;9330;52.210;21.174;2023-09-07T08:52:29;24.50;99.90
18408;DHT22;9330;52.210;21.174;2023-09-07T08:54:56;24.40;99.90
18408;DHT22;9330;52.210;21.174;2023-09-07T08:57:26;24.40;99.90
18408;DHT22;9330;52.210;21.174;2023-09-07T08:59:54;24.70;99.90
18408;DHT22;9330;52.210;21.174;2023-09-07T09:02:20;24.70;99.90
18408;DHT22;9330;52.210;21.174;2023-09-07T09:04:48;25.00;99.90
18408;DHT22;9330;52.210;21.174;2023-09-07T09:07:16;25.00;99.90
18408;DHT22;9330;52.210;21.174;2023-09-07T09:09:43;25.10;99.90
18408;DHT22;9330;52.210;21.174;2023-09-07T09:12:11;25.10;99.90
18408;DHT22;9330;52.210;21.174;2023-09-07T09:14:41;25.30;99.90
18408;DHT22;9330;52.210;21.174;2023-09-07T09:17:11;25.40;99.90
18408;DHT22;9330;52.210;21.174;2023-09-07T09:19:39;25.60;99.90
18408;DHT22;9330;52.210;21.174;2023-09-07T09:22:07;25.40;99.90
18408;DHT22;9330;52.210;21.174;2023-09-07T09:24:35;25.50;99.90
18408;DHT22;9330;52.210;21.174;2023-09-07T09:27:02;25.80;99.90
18408;DHT22;9330;52.210;21.174;2023-09-07T09:29:32;26.00;99.90
18408;DHT22;9330;52.210;21.174;2023-09-07T09:32:00;26.00;99.90
18408;DHT22;9330;52.210;21.174;2023-09-07T09:34:32;26.00;99.90
18408;DHT22;9330;52.210;21.174;2023-09-07T09:37:00;25.70;99.90
18408;DHT22;9330;52.210;21.174;2023-09-07T09:39:27;25.60;99.90
18408;DHT22;9330;52.210;21.174;2023-09-07T09:41:56;25.40;99.90
18408;DHT22;9330;52.210;21.174;2023-09-07T09:44:24;25.20;99.90
18408;DHT22;9330;52.210;21.174;2023-09-07T09:46:51;25.10;99.90
18408;DHT22;9330;52.210;21.174;2023-09-07T09:49:20;25.10;99.90
18408;DHT22;9330;52.210;21.174;2023-09-07T09:51:48;24.90;99.90
18408;DHT22;9330;52.210;21.174;2023-09-07T09:54:16;24.90;99.90
18408;DHT22;9330;52.210;21.174;2023-09-07T09:56:43;25.00;99.90
18408;DHT22;9330;52.210;21.174;2023-09-07T09:59:13;25.00;99.90
18408;DHT22;9330;52.210;21.174;2023-09-07T10:01:43;25.00;99.90
18408;DHT22;9330;52.210;21.174;2023-09-07T10:04:11;24.90;99.90
18408;DHT22;9330;52.210;21.174;2023-09-07T10:06:49;24.70;99.90
18408;DHT22;9330;52.210;21.174;2023-09-07T10:09:16;24.70;99.90
18408;DHT22;9330;52.210;21.174;2023-09-07T10:11:51;24.70;99.90
18408;DHT22;9330;52.210;21.174;2023-09-07T10:14:20;24.80;99.90
18408;DHT22;9330;52.210;21.174;2023-09-07T10:16:48;24.80;99.90
18408;DHT22;9330;52.210;21.174;2023-09-07T10:19:16;24.80;99.90
18408;DHT22;9330;52.210;21.174;2023-09-07T10:21:43;25.00;99.90
18408;DHT22;9330;52.210;21.174;2023-09-07T10:24:10;25.10;99.90
18408;DHT22;9330;52.210;21.174;2023-09-07T10:26:37;25.10;99.90
18408;DHT22;9330;52.210;21.174;2023-09-07T10:29:04;25.00;99.90
18408;DHT22;9330;52.210;21.174;2023-09-07T10:31:32;25.00;99.90
18408;DHT22;9330;52.210;21.174;2023-09-07T10:34:08;25.00;99.90
18408;DHT22;9330;52.210;21.174;2023-09-07T10:36:37;25.00;99.90
18408;DHT22;9330;52.210;21.174;2023-09-07T10:39:04;25.10;99.90
18408;DHT22;9330;52.210;21.174;2023-09-07T10:41:40;25.10;99.90
18408;DHT22;9330;52.210;21.174;2023-09-07T10:44:08;25.20;99.90
18408;DHT22;9330;52.210;21.174;2023-09-07T10:46:38;25.30;99.90
18408;DHT22;9330;52.210;21.174;2023-09-07T10:49:07;25.30;99.90
18408;DHT22;9330;52.210;21.174;2023-09-07T10:51:41;25.40;99.90
18408;DHT22;9330;52.210;21.174;2023-09-07T10:54:14;25.50;99.90
18408;DHT22;9330;52.210;21.174;2023-09-07T10:56:44;25.50;99.90
18408;DHT22;9330;52.210;21.174;2023-09-07T10:59:11;25.60;98.60
18408;DHT22;9330;52.210;21.174;2023-09-07T11:01:39;25.60;96.90
18408;DHT22;9330;52.210;21.174;2023-09-07T11:04:06;25.70;99.80
18408;DHT22;9330;52.210;21.174;2023-09-07T11:06:37;25.80;98.80
18408;DHT22;9330;52.210;21.174;2023-09-07T11:09:04;25.80;97.70
18408;DHT22;9330;52.210;21.174;2023-09-07T11:11:34;25.80;99.90
18408;DHT22;9330;52.210;21.174;2023-09-07T11:14:02;25.80;98.70
18408;DHT22;9330;52.210;21.174;2023-09-07T11:16:30;25.80;98.50
18408;DHT22;9330;52.210;21.174;2023-09-07T11:19:02;25.70;99.40
18408;DHT22;9330;52.210;21.174;2023-09-07T11:21:30;25.70;99.70
18408;DHT22;9330;52.210;21.174;2023-09-07T11:23:58;25.60;97.80
18408;DHT22;9330;52.210;21.174;2023-09-07T11:26:25;25.50;97.40
18408;DHT22;9330;52.210;21.174;2023-09-07T11:28:52;25.30;98.20
18408;DHT22;9330;52.210;21.174;2023-09-07T11:31:20;25.40;98.40
18408;DHT22;9330;52.210;21.174;2023-09-07T11:33:47;25.40;97.10
18408;DHT22;9330;52.210;21.174;2023-09-07T11:36:15;25.60;94.90
18408;DHT22;9330;52.210;21.174;2023-09-07T11:38:43;25.60;97.70
18408;DHT22;9330;52.210;21.174;2023-09-07T11:41:11;25.70;92.40
18408;DHT22;9330;52.210;21.174;2023-09-07T11:43:38;25.80;95.90
18408;DHT22;9330;52.210;21.174;2023-09-07T11:46:07;25.90;92.60
18408;DHT22;9330;52.210;21.174;2023-09-07T11:48:34;26.00;87.50
18408;DHT22;9330;52.210;21.174;2023-09-07T11:51:01;26.10;80.10
18408;DHT22;9330;52.210;21.174;2023-09-07T11:53:29;26.30;89.00
18408;DHT22;9330;52.210;21.174;2023-09-07T11:55:56;26.40;81.50
18408;DHT22;9330;52.210;21.174;2023-09-07T11:58:24;26.50;79.30
18408;DHT22;9330;52.210;21.174;2023-09-07T12:00:52;26.70;79.80
18408;DHT22;9330;52.210;21.174;2023-09-07T12:03:19;26.90;74.50
18408;DHT22;9330;52.210;21.174;2023-09-07T12:05:47;27.10;84.00
18408;DHT22;9330;52.210;21.174;2023-09-07T12:08:14;27.40;75.50
18408;DHT22;9330;52.210;21.174;2023-09-07T12:10:42;27.60;70.40
18408;DHT22;9330;52.210;21.174;2023-09-07T12:13:09;27.70;76.60
18408;DHT22;9330;52.210;21.174;2023-09-07T12:15:36;27.60;78.30
18408;DHT22;9330;52.210;21.174;2023-09-07T12:18:03;27.70;82.30
18408;DHT22;9330;52.210;21.174;2023-09-07T12:20:30;27.80;65.30
18408;DHT22;9330;52.210;21.174;2023-09-07T12:22:57;27.90;65.30
18408;DHT22;9330;52.210;21.174;2023-09-07T12:25:24;27.80;62.60
18408;DHT22;9330;52.210;21.174;2023-09-07T12:27:52;27.60;60.60
18408;DHT22;9330;52.210;21.174;2023-09-07T12:30:20;27.40;63.10
18408;DHT22;9330;52.210;21.174;2023-09-07T12:32:49;28.00;68.30
18408;DHT22;9330;52.210;21.174;2023-09-07T12:35:16;28.60;59.80
18408;DHT22;9330;52.210;21.174;2023-09-07T12:37:43;29.10;56.50
18408;DHT22;9330;52.210;21.174;2023-09-07T12:40:11;29.80;59.60
18408;DHT22;9330;52.210;21.174;2023-09-07T12:42:39;30.10;53.80
18408;DHT22;9330;52.210;21.174;2023-09-07T12:45:09;30.10;48.80
18408;DHT22;9330;52.210;21.174;2023-09-07T12:47:37;30.30;48.40
18408;DHT22;9330;52.210;21.174;2023-09-07T12:50:04;30.40;50.70
18408;DHT22;9330;52.210;21.174;2023-09-07T12:52:32;29.90;48.20
18408;DHT22;9330;52.210;21.174;2023-09-07T12:55:00;30.00;49.20
18408;DHT22;9330;52.210;21.174;2023-09-07T12:57:26;29.80;48.00
18408;DHT22;9330;52.210;21.174;2023-09-07T12:59:53;29.40;50.00
18408;DHT22;9330;52.210;21.174;2023-09-07T13:02:21;28.80;49.50
18408;DHT22;9330;52.210;21.174;2023-09-07T13:04:48;29.00;56.40
18408;DHT22;9330;52.210;21.174;2023-09-07T13:07:15;30.00;59.70
18408;DHT22;9330;52.210;21.174;2023-09-07T13:09:43;30.70;54.50
18408;DHT22;9330;52.210;21.174;2023-09-07T13:12:10;31.10;54.80
18408;DHT22;9330;52.210;21.174;2023-09-07T13:14:37;31.50;50.80
18408;DHT22;9330;52.210;21.174;2023-09-07T13:17:04;32.00;46.00
18408;DHT22;9330;52.210;21.174;2023-09-07T13:19:32;31.70;46.50
18408;DHT22;9330;52.210;21.174;2023-09-07T13:21:59;31.70;45.10
18408;DHT22;9330;52.210;21.174;2023-09-07T13:24:26;31.50;44.70
18408;DHT22;9330;52.210;21.174;2023-09-07T13:26:52;31.30;44.30
18408;DHT22;9330;52.210;21.174;2023-09-07T13:29:19;31.00;44.10
18408;DHT22;9330;52.210;21.174;2023-09-07T13:31:46;30.80;45.10
18408;DHT22;9330;52.210;21.174;2023-09-07T13:34:13;30.50;44.00
18408;DHT22;9330;52.210;21.174;2023-09-07T13:36:41;30.30;45.10
18408;DHT22;9330;52.210;21.174;2023-09-07T13:39:08;30.00;43.90
18408;DHT22;9330;52.210;21.174;2023-09-07T13:41:35;29.70;45.10
18408;DHT22;9330;52.210;21.174;2023-09-07T13:44:02;29.50;44.70
18408;DHT22;9330;52.210;21.174;2023-09-07T13:46:29;29.20;44.90
18408;DHT22;9330;52.210;21.174;2023-09-07T13:48:55;29.20;45.90
18408;DHT22;9330;52.210;21.174;2023-09-07T13:51:22;29.10;46.60
18408;DHT22;9330;52.210;21.174;2023-09-07T13:53:51;28.80;45.60
18408;DHT22;9330;52.210;21.174;2023-09-07T13:56:18;28.50;45.80
18408;DHT22;9330;52.210;21.174;2023-09-07T13:58:45;28.10;46.80
18408;DHT22;9330;52.210;21.174;2023-09-07T14:01:12;27.80;49.00
18408;DHT22;9330;52.210;21.174;2023-09-07T14:03:39;27.50;50.80
18408;DHT22;9330;52.210;21.174;2023-09-07T14:06:06;27.30;49.70
18408;DHT22;9330;52.210;21.174;2023-09-07T14:08:32;27.20;49.00
18408;DHT22;9330;52.210;21.174;2023-09-07T14:11:01;27.20;49.60
18408;DHT22;9330;52.210;21.174;2023-09-07T14:13:28;27.20;50.00
18408;DHT22;9330;52.210;21.174;2023-09-07T14:15:55;27.00;49.80
18408;DHT22;9330;52.210;21.174;2023-09-07T14:18:22;26.90;50.20
18408;DHT22;9330;52.210;21.174;2023-09-07T14:20:49;26.80;50.70
18408;DHT22;9330;52.210;21.174;2023-09-07T14:23:16;26.60;50.50
18408;DHT22;9330;52.210;21.174;2023-09-07T14:25:43;26.50;51.80
18408;DHT22;9330;52.210;21.174;2023-09-07T14:28:12;26.40;53.50
18408;DHT22;9330;52.210;21.174;2023-09-07T14:30:39;26.30;53.80
18408;DHT22;9330;52.210;21.174;2023-09-07T14:33:06;26.20;56.30
18408;DHT22;9330;52.210;21.174;2023-09-07T14:35:33;26.10;55.60
18408;DHT22;9330;52.210;21.174;2023-09-07T14:38:00;26.00;56.80
18408;DHT22;9330;52.210;21.174;2023-09-07T14:40:27;25.90;57.90
18408;DHT22;9330;52.210;21.174;2023-09-07T14:42:54;25.80;58.40
18408;DHT22;9330;52.210;21.174;2023-09-07T14:45:24;25.80;58.30
18408;DHT22;9330;52.210;21.174;2023-09-07T14:47:51;25.80;58.60
18408;DHT22;9330;52.210;21.174;2023-09-07T14:50:18;25.70;58.90
18408;DHT22;9330;52.210;21.174;2023-09-07T14:52:45;25.70;59.10
18408;DHT22;9330;52.210;21.174;2023-09-07T14:55:13;25.70;58.60
18408;DHT22;9330;52.210;21.174;2023-09-07T14:57:40;25.70;58.50
18408;DHT22;9330;52.210;21.174;2023-09-07T15:00:08;25.70;59.60
18408;DHT22;9330;52.210;21.174;2023-09-07T15:02:37;25.70;59.80
18408;DHT22;9330;52.210;21.174;2023-09-07T15:05:04;25.70;60.40
18408;DHT22;9330;52.210;21.174;2023-09-07T15:07:31;25.60;62.00
18408;DHT22;9330;52.210;21.174;2023-09-07T15:09:58;25.60;59.70
18408;DHT22;9330;52.210;21.174;2023-09-07T15:12:24;25.60;60.00
18408;DHT22;9330;52.210;21.174;2023-09-07T15:14:51;25.60;64.50
18408;DHT22;9330;52.210;21.174;2023-09-07T15:17:18;25.60;62.80
18408;DHT22;9330;52.210;21.174;2023-09-07T15:19:46;25.50;61.80
18408;DHT22;9330;52.210;21.174;2023-09-07T15:22:14;25.50;62.00
18408;DHT22;9330;52.210;21.174;2023-09-07T15:24:40;25.50;60.20
18408;DHT22;9330;52.210;21.174;2023-09-07T15:27:08;25.50;59.90
18408;DHT22;9330;52.210;21.174;2023-09-07T15:29:35;25.50;60.10
18408;DHT22;9330;52.210;21.174;2023-09-07T15:32:03;25.40;60.70